Time;durP1;ratioP1;P1;durP2;ratioP2;P2;SDS_P1;SDS_P2;PMS_P1;PMS_P2;Temp;Humidity;BMP_temperature;BMP_pressure;BME280_temperature;BME280_humidity;BME280_pressure;Samples;Min_cycle;Max_cycle;Signal;HPM_P1;HPM_P2
2022/04/02 00:01:33;;;;;;;4.17;2.10;;;;;;;-148.33;100.00;56587.81;5067734;28;20088;-61
2022/04/02 00:03:58;;;;;;;4.33;2.47;;;;;;;-148.33;100.00;56587.81;5067974;28;20028;-61
2022/04/02 00:06:23;;;;;;;4.23;2.43;;;;;;;-148.33;100.00;56587.81;5067003;28;20533;-61
2022/04/02 00:08:49;;;;;;;3.20;2.20;;;;;;;-148.33;100.00;56587.81;5053038;28;20505;-61
2022/04/02 00:11:14;;;;;;;2.87;2.13;;;;;;;-148.33;100.00;56587.81;5049060;28;20025;-61
2022/04/02 00:13:39;;;;;;;3.83;2.33;;;;;;;-148.33;100.00;56587.81;5048489;28;20033;-61
2022/04/02 00:16:05;;;;;;;5.97;2.53;;;;;;;-148.33;100.00;56587.81;5048848;28;20020;-57
2022/04/02 00:18:31;;;;;;;3.23;2.47;;;;;;;-148.33;100.00;56587.81;5048601;28;20397;-57
2022/04/02 00:20:58;;;;;;;4.00;2.23;;;;;;;-148.33;100.00;56587.81;5048933;28;20027;-61
2022/04/02 00:23:43;;;;;;;3.77;2.40;;;;;;;-148.33;100.00;56587.81;5048475;28;20048;-61
2022/04/02 00:26:10;;;;;;;3.20;1.83;;;;;;;-148.33;100.00;56587.81;5048603;28;20477;-57
2022/04/02 00:28:37;;;;;;;3.97;2.20;;;;;;;-148.33;100.00;56587.81;5049184;28;20025;-61
2022/04/02 00:31:04;;;;;;;3.00;2.10;;;;;;;-148.33;100.00;56587.81;5048113;28;20055;-60
2022/04/02 00:33:29;;;;;;;4.20;2.53;;;;;;;-148.33;100.00;56587.81;5048228;28;20035;-58
2022/04/02 00:35:55;;;;;;;4.13;2.10;;;;;;;-148.33;100.00;56587.81;5049091;28;20103;-61
2022/04/02 00:38:20;;;;;;;3.43;2.07;;;;;;;-148.33;100.00;56587.81;5048503;28;20105;-58
2022/04/02 00:40:45;;;;;;;3.90;2.37;;;;;;;-148.33;100.00;56587.81;5048731;28;20101;-60
2022/04/02 00:43:23;;;;;;;4.03;2.43;;;;;;;-148.33;100.00;56587.81;5047769;28;20021;-61
2022/04/02 00:45:50;;;;;;;3.57;2.33;;;;;;;-148.33;100.00;56587.81;5048073;28;20056;-55
2022/04/02 00:48:15;;;;;;;2.73;2.53;;;;;;;-148.33;100.00;56587.81;5048440;28;20055;-61
2022/04/02 00:50:40;;;;;;;2.47;2.10;;;;;;;-148.33;100.00;56587.81;5048348;28;20079;-61
2022/04/02 00:53:06;;;;;;;2.97;2.23;;;;;;;-148.33;100.00;56587.81;5047752;28;20351;-60
2022/04/02 00:55:32;;;;;;;3.50;2.30;;;;;;;-148.33;100.00;56587.81;5047988;28;20064;-61
2022/04/02 00:57:57;;;;;;;5.00;2.00;;;;;;;-148.33;100.00;56587.81;5048085;28;20362;-57
2022/04/02 01:00:23;;;;;;;2.73;2.13;;;;;;;-148.33;100.00;56587.81;5048219;28;20025;-61
2022/04/02 01:02:48;;;;;;;4.53;2.50;;;;;;;-148.33;100.00;56587.81;5047972;28;20053;-61
2022/04/02 01:05:14;;;;;;;2.67;2.10;;;;;;;-148.33;100.00;56587.81;5048164;28;20419;-61
2022/04/02 01:07:39;;;;;;;3.23;2.23;;;;;;;-148.33;100.00;56587.81;5047438;28;20035;-61
2022/04/02 01:10:05;;;;;;;4.13;2.33;;;;;;;-148.33;100.00;56587.81;5047800;28;20025;-59
2022/04/02 01:12:30;;;;;;;2.73;2.27;;;;;;;-148.33;100.00;56587.81;5048269;28;20035;-57
2022/04/02 01:14:56;;;;;;;4.20;1.97;;;;;;;-148.33;100.00;56587.81;5047934;28;20454;-61
2022/04/02 01:17:22;;;;;;;3.90;2.80;;;;;;;-148.33;100.00;56587.81;5048461;28;20025;-61
2022/04/02 01:19:47;;;;;;;4.13;2.80;;;;;;;-148.33;100.00;56587.81;5051855;28;20423;-61
2022/04/02 01:22:13;;;;;;;3.87;2.17;;;;;;;-148.33;100.00;56587.81;5052006;28;20028;-60
2022/04/02 01:24:38;;;;;;;3.40;2.17;;;;;;;-148.33;100.00;56587.81;5051866;28;20028;-61
2022/04/02 01:27:04;;;;;;;4.57;2.80;;;;;;;-148.33;100.00;56587.81;5051385;28;20091;-56
2022/04/02 01:29:33;;;;;;;4.40;2.60;;;;;;;-148.33;100.00;56587.81;5051884;28;20092;-59
2022/04/02 01:31:59;;;;;;;2.63;2.00;;;;;;;-148.33;100.00;56587.81;5052330;28;20020;-60
2022/04/02 01:34:24;;;;;;;5.40;1.90;;;;;;;-148.33;100.00;56587.81;5051781;28;20025;-59
2022/04/02 01:36:49;;;;;;;3.93;2.27;;;;;;;-148.33;100.00;56587.81;5052484;28;20107;-58
2022/04/02 01:39:15;;;;;;;4.03;2.30;;;;;;;-148.33;100.00;56587.81;5062328;28;20028;-61
2022/04/02 01:41:40;;;;;;;3.33;1.87;;;;;;;-148.33;100.00;56587.81;5070629;28;20181;-60
2022/04/02 01:44:05;;;;;;;3.93;2.20;;;;;;;-148.33;100.00;56587.81;5070736;28;20032;-59
2022/04/02 01:46:30;;;;;;;4.17;2.20;;;;;;;-148.33;100.00;56587.81;5071177;28;20085;-61
2022/04/02 01:48:56;;;;;;;5.97;2.20;;;;;;;-148.33;100.00;56587.81;5071035;28;20663;-61
2022/04/02 01:51:21;;;;;;;2.70;2.10;;;;;;;-148.33;100.00;56587.81;5070959;28;20059;-58
2022/04/02 01:53:46;;;;;;;2.60;2.10;;;;;;;-148.33;100.00;56587.81;5070472;28;20056;-56
2022/04/02 01:56:12;;;;;;;3.73;2.30;;;;;;;-148.33;100.00;56587.81;5070477;28;20028;-61
2022/04/02 01:58:37;;;;;;;2.50;2.10;;;;;;;-148.33;100.00;56587.81;5070788;28;20024;-57
2022/04/02 02:01:04;;;;;;;4.63;2.60;;;;;;;-148.33;100.00;56587.81;5070902;28;20055;-59
2022/04/02 02:03:29;;;;;;;2.87;2.17;;;;;;;-148.33;100.00;56587.81;5070752;28;20469;-60
2022/04/02 02:05:55;;;;;;;3.30;2.00;;;;;;;-148.33;100.00;56587.81;5069700;28;20024;-61
2022/04/02 02:08:20;;;;;;;5.23;2.30;;;;;;;-148.33;100.00;56587.81;5070178;28;20024;-60
2022/04/02 02:10:47;;;;;;;2.87;1.77;;;;;;;-148.33;100.00;56587.81;5070255;28;20021;-61
2022/04/02 02:13:12;;;;;;;3.17;2.20;;;;;;;-148.33;100.00;56587.81;5069771;28;20127;-60
2022/04/02 02:15:38;;;;;;;3.97;2.37;;;;;;;-148.33;100.00;56587.81;5070161;28;20107;-61
2022/04/02 02:18:03;;;;;;;4.43;2.23;;;;;;;-148.33;100.00;56587.81;5070254;28;20017;-60
2022/04/02 02:20:28;;;;;;;3.53;1.90;;;;;;;-148.33;100.00;56587.81;5070285;28;20028;-61
2022/04/02 02:22:53;;;;;;;3.00;2.27;;;;;;;-148.33;100.00;56587.81;5069875;28;20051;-61
2022/04/02 02:25:19;;;;;;;2.60;2.40;;;;;;;-148.33;100.00;56587.81;5070387;28;20093;-61
2022/04/02 02:27:45;;;;;;;3.27;2.00;;;;;;;-148.33;100.00;56587.81;5069218;28;20032;-59
2022/04/02 02:30:12;;;;;;;3.53;2.07;;;;;;;-148.33;100.00;56587.81;5069358;28;20062;-59
2022/04/02 02:32:39;;;;;;;5.10;2.37;;;;;;;-148.33;100.00;56587.81;5070290;28;20372;-61
2022/04/02 02:38:11;;;;;;;3.80;2.20;;;;;;;-148.33;100.00;56587.81;5069942;28;20098;-61
2022/04/02 02:40:38;;;;;;;2.40;2.00;;;;;;;-148.33;100.00;56587.81;5069231;28;20028;-61
2022/04/02 02:43:05;;;;;;;4.67;2.40;;;;;;;-148.33;100.00;56587.81;5069742;28;20036;-60
2022/04/02 02:45:33;;;;;;;5.00;2.30;;;;;;;-148.33;100.00;56587.81;5070116;28;20109;-58
2022/04/02 02:47:59;;;;;;;4.70;2.07;;;;;;;-148.33;100.00;56587.81;5069715;28;20028;-61
2022/04/02 02:50:26;;;;;;;2.50;2.30;;;;;;;-148.33;100.00;56587.81;5069402;28;20033;-61
2022/04/02 02:52:51;;;;;;;3.23;2.20;;;;;;;-148.33;100.00;56587.81;5069486;28;20104;-60
2022/04/02 02:55:18;;;;;;;2.60;1.80;;;;;;;-148.33;100.00;56587.81;5068792;28;20107;-61
2022/04/02 02:57:45;;;;;;;3.50;2.30;;;;;;;-148.33;100.00;56587.81;5070020;28;20070;-59
2022/04/02 03:00:12;;;;;;;3.40;2.23;;;;;;;-148.33;100.00;56587.81;5050288;28;20067;-60
2022/04/02 03:02:39;;;;;;;3.37;2.27;;;;;;;-148.33;100.00;56587.81;5050084;28;20037;-58
2022/04/02 03:05:10;;;;;;;2.53;2.10;;;;;;;-148.33;100.00;56587.81;5069961;28;20078;-60
2022/04/02 03:07:37;;;;;;;2.83;2.30;;;;;;;-148.33;100.00;56587.81;5055686;28;20451;-58
2022/04/02 03:10:03;;;;;;;2.73;2.00;;;;;;;-148.33;100.00;56587.81;5069736;28;20020;-60
2022/04/02 03:12:28;;;;;;;2.57;2.00;;;;;;;-148.33;100.00;56587.81;5049814;28;20140;-61
2022/04/02 03:14:54;;;;;;;6.00;2.30;;;;;;;-148.33;100.00;56587.81;5049770;28;20028;-61
2022/04/02 03:17:19;;;;;;;3.73;1.97;;;;;;;-148.33;100.00;56587.81;5049720;28;20028;-61
2022/04/02 03:19:44;;;;;;;3.03;2.00;;;;;;;-148.33;100.00;56587.81;5049423;28;20021;-61
2022/04/02 03:22:10;;;;;;;2.97;1.70;;;;;;;-148.33;100.00;56587.81;5049560;28;20083;-58
2022/04/02 03:24:35;;;;;;;4.73;2.00;;;;;;;-148.33;100.00;56587.81;5050023;28;20060;-61
2022/04/02 03:27:00;;;;;;;3.40;1.97;;;;;;;-148.33;100.00;56587.81;5049646;28;20021;-61
2022/04/02 03:29:27;;;;;;;3.00;1.87;;;;;;;-148.33;100.00;56587.81;5060196;28;20064;-59
2022/04/02 03:31:52;;;;;;;3.03;1.90;;;;;;;-148.33;100.00;56587.81;5069006;28;20056;-61
2022/04/02 03:34:17;;;;;;;4.03;1.80;;;;;;;-148.33;100.00;56587.81;5068901;28;20112;-59
2022/04/02 03:36:44;;;;;;;4.50;2.13;;;;;;;-148.33;100.00;56587.81;5068396;28;20449;-61
2022/04/02 03:39:09;;;;;;;2.57;2.00;;;;;;;-148.33;100.00;56587.81;5068785;28;20039;-58
2022/04/02 03:41:34;;;;;;;3.87;1.90;;;;;;;-148.33;100.00;56587.81;5068066;28;20037;-60
2022/04/02 03:44:00;;;;;;;5.93;2.10;;;;;;;-148.33;100.00;56587.81;5068362;28;20071;-61
2022/04/02 03:49:09;;;;;;;3.87;1.90;;;;;;;-148.33;100.00;56587.81;5067830;28;20036;-61
2022/04/02 03:51:34;;;;;;;3.13;2.10;;;;;;;-148.33;100.00;56587.81;5068485;28;20029;-61
2022/04/02 03:54:00;;;;;;;4.40;2.77;;;;;;;-148.33;100.00;56587.81;5065652;28;20025;-60
2022/04/02 03:56:26;;;;;;;3.07;1.63;;;;;;;-148.33;100.00;56587.81;5049947;28;20424;-60
2022/04/02 03:58:51;;;;;;;2.57;1.77;;;;;;;-148.33;100.00;56587.81;5048660;28;20072;-58
2022/04/02 04:01:16;;;;;;;4.00;2.77;;;;;;;-148.33;100.00;56587.81;5048733;28;20055;-61
2022/04/02 04:03:42;;;;;;;3.53;2.17;;;;;;;-148.33;100.00;56587.81;5049238;28;20063;-61
2022/04/02 04:06:07;;;;;;;3.13;2.13;;;;;;;-148.33;100.00;56587.81;5049189;28;20025;-61
2022/04/02 04:08:35;;;;;;;2.77;2.00;;;;;;;-148.33;100.00;56587.81;5048569;28;20025;-60
2022/04/02 04:11:01;;;;;;;3.40;2.03;;;;;;;-148.33;100.00;56587.81;5063677;28;20115;-61
2022/04/02 04:13:26;;;;;;;5.23;2.30;;;;;;;-148.33;100.00;56587.81;5068195;28;20417;-60
2022/04/02 04:15:51;;;;;;;3.50;2.00;;;;;;;-148.33;100.00;56587.81;5067643;28;20036;-61
2022/04/02 04:18:17;;;;;;;3.37;2.40;;;;;;;-148.33;100.00;56587.81;5067879;28;20586;-61
2022/04/02 04:20:42;;;;;;;4.97;3.07;;;;;;;-148.33;100.00;56587.81;5067946;28;20025;-58
2022/04/02 04:23:07;;;;;;;4.53;2.30;;;;;;;-148.33;100.00;56587.81;5068055;28;20056;-61
2022/04/02 04:25:32;;;;;;;3.40;2.47;;;;;;;-148.33;100.00;56587.81;5067019;28;20028;-61
2022/04/02 04:27:58;;;;;;;2.67;2.13;;;;;;;-148.33;100.00;56587.81;5067803;28;20067;-57
2022/04/02 04:30:23;;;;;;;2.77;2.07;;;;;;;-148.33;100.00;56587.81;5067905;28;20473;-61
2022/04/02 04:32:49;;;;;;;2.27;1.83;;;;;;;-148.33;100.00;56587.81;5068277;28;20564;-58
2022/04/02 04:35:14;;;;;;;5.13;2.00;;;;;;;-148.33;100.00;56587.81;5067471;28;20029;-55
2022/04/02 04:37:39;;;;;;;3.70;1.97;;;;;;;-148.33;100.00;56587.81;5067497;28;20032;-60
2022/04/02 04:40:05;;;;;;;2.67;2.40;;;;;;;-148.33;100.00;56587.81;5067416;28;20028;-60
2022/04/02 04:42:31;;;;;;;2.40;2.07;;;;;;;-148.33;100.00;56587.81;5067718;28;20033;-60
2022/04/02 04:44:56;;;;;;;2.83;2.10;;;;;;;-148.33;100.00;56587.81;5067729;28;20036;-57
2022/04/02 04:47:22;;;;;;;4.17;2.20;;;;;;;-148.33;100.00;56587.81;5066821;28;20489;-60
2022/04/02 04:49:47;;;;;;;5.50;2.60;;;;;;;-148.33;100.00;56587.81;5068180;28;20063;-59
2022/04/02 04:52:12;;;;;;;3.73;2.17;;;;;;;-148.33;100.00;56587.81;5067076;28;20048;-60
2022/04/02 04:54:37;;;;;;;3.43;2.10;;;;;;;-148.33;100.00;56587.81;5066843;28;20043;-56
2022/04/02 04:57:03;;;;;;;2.30;1.93;;;;;;;-148.33;100.00;56587.81;5067585;28;20150;-59
2022/04/02 04:59:29;;;;;;;3.03;2.17;;;;;;;-148.33;100.00;56587.81;5059326;28;20029;-61
2022/04/02 05:01:54;;;;;;;3.40;2.10;;;;;;;-148.33;100.00;56587.81;5047915;28;20044;-61
2022/04/02 05:04:19;;;;;;;2.77;1.87;;;;;;;-148.33;100.00;56587.81;5047748;28;20044;-59
2022/04/02 05:06:45;;;;;;;3.67;2.20;;;;;;;-148.33;100.00;56587.81;5047864;28;20524;-61
2022/04/02 05:09:10;;;;;;;3.33;2.30;;;;;;;-148.33;100.00;56587.81;5046128;28;20370;-59
2022/04/02 05:11:36;;;;;;;3.60;1.73;;;;;;;-148.33;100.00;56587.81;5046221;28;20032;-59
2022/04/02 05:14:01;;;;;;;2.47;1.70;;;;;;;-148.33;100.00;56587.81;5046453;28;20017;-61
2022/04/02 05:16:26;;;;;;;2.50;2.20;;;;;;;-148.33;100.00;56587.81;5045251;28;20033;-60
2022/04/02 05:18:53;;;;;;;2.93;2.10;;;;;;;-148.33;100.00;56587.81;5052362;28;20368;-58
2022/04/02 05:21:19;;;;;;;3.00;2.10;;;;;;;-148.33;100.00;56587.81;5047009;28;20579;-60
2022/04/02 05:23:44;;;;;;;3.73;1.93;;;;;;;-148.33;100.00;56587.81;5048380;28;20033;-61
2022/04/02 05:26:10;;;;;;;4.83;2.03;;;;;;;-148.33;100.00;56587.81;5047797;28;20037;-61
2022/04/02 05:28:35;;;;;;;3.43;2.20;;;;;;;-148.33;100.00;56587.81;5048349;28;20037;-58
2022/04/02 05:31:00;;;;;;;3.30;2.40;;;;;;;-148.33;100.00;56587.81;5064645;28;20039;-60
2022/04/02 05:33:26;;;;;;;3.33;2.23;;;;;;;-148.33;100.00;56587.81;5066769;28;20158;-55
2022/04/02 05:35:51;;;;;;;3.90;1.97;;;;;;;-148.33;100.00;56587.81;5067065;28;20399;-61
2022/04/02 05:38:17;;;;;;;3.27;2.03;;;;;;;-148.33;100.00;56587.81;5066927;28;20036;-59
2022/04/02 05:40:42;;;;;;;2.80;2.23;;;;;;;-148.33;100.00;56587.81;5067212;28;20439;-60
2022/04/02 05:43:08;;;;;;;2.43;2.03;;;;;;;-148.33;100.00;56587.81;5066344;28;20121;-60
2022/04/02 05:45:33;;;;;;;3.40;2.23;;;;;;;-148.33;100.00;56587.81;5067164;28;20032;-60
2022/04/02 05:47:59;;;;;;;4.03;2.10;;;;;;;-148.33;100.00;56587.81;5067307;28;20559;-59
2022/04/02 05:50:26;;;;;;;3.17;2.10;;;;;;;-148.33;100.00;56587.81;5066858;28;20029;-60
2022/04/02 05:52:52;;;;;;;3.93;2.40;;;;;;;-148.33;100.00;56587.81;5067369;28;20024;-60
2022/04/02 05:55:18;;;;;;;3.90;2.00;;;;;;;-148.33;100.00;56587.81;5067046;28;20064;-61
2022/04/02 05:57:45;;;;;;;3.20;1.63;;;;;;;-148.33;100.00;56587.81;5048565;28;20033;-61
2022/04/02 06:00:13;;;;;;;3.80;2.73;;;;;;;-148.33;100.00;56587.81;5068024;28;20025;-61
2022/04/02 06:02:39;;;;;;;3.17;2.13;;;;;;;-148.33;100.00;56587.81;5066690;28;20120;-61
2022/04/02 06:05:09;;;;;;;2.33;1.70;;;;;;;-148.33;100.00;56587.81;5069922;28;20081;-61
2022/04/02 06:07:35;;;;;;;4.60;2.47;;;;;;;-148.33;100.00;56587.81;5069553;28;20028;-60
2022/04/02 06:10:03;;;;;;;2.53;1.90;;;;;;;-148.33;100.00;56587.81;5070371;28;20025;-60
2022/04/02 06:12:32;;;;;;;5.27;1.97;;;;;;;-148.33;100.00;56587.81;5070247;28;20028;-60
2022/04/02 06:14:58;;;;;;;2.77;2.03;;;;;;;-148.33;100.00;56587.81;5070132;28;20036;-61
2022/04/02 06:17:24;;;;;;;5.30;2.70;;;;;;;-148.33;100.00;56587.81;5070238;28;20027;-59
2022/04/02 06:19:49;;;;;;;5.57;2.27;;;;;;;-148.33;100.00;56587.81;5070513;28;20028;-61
2022/04/02 06:22:14;;;;;;;4.33;2.50;;;;;;;-148.33;100.00;56587.81;5070098;28;20024;-61
2022/04/02 06:24:40;;;;;;;4.97;2.50;;;;;;;-148.33;100.00;56587.81;5052421;28;20085;-57
2022/04/02 06:27:06;;;;;;;2.87;2.23;;;;;;;-148.33;100.00;56587.81;5070668;28;20377;-60
2022/04/02 06:29:31;;;;;;;5.23;2.37;;;;;;;-148.33;100.00;56587.81;5070019;28;20020;-60
2022/04/02 06:31:56;;;;;;;3.87;2.47;;;;;;;-148.33;100.00;56587.81;5050335;28;20031;-60
2022/04/02 06:34:22;;;;;;;4.50;2.27;;;;;;;-148.33;100.00;56587.81;5069845;28;20385;-61
2022/04/02 06:36:48;;;;;;;3.97;2.43;;;;;;;-148.33;100.00;56587.81;5069655;28;20032;-59
2022/04/02 06:39:13;;;;;;;3.77;2.20;;;;;;;-148.33;100.00;56587.81;5069760;28;20036;-59
2022/04/02 06:41:40;;;;;;;2.77;2.30;;;;;;;-148.33;100.00;56587.81;5069939;28;20514;-62
2022/04/02 06:44:07;;;;;;;3.43;2.30;;;;;;;-148.33;100.00;56587.81;5069575;28;20021;-60
2022/04/02 06:46:32;;;;;;;5.30;2.30;;;;;;;-148.33;100.00;56587.81;5061704;28;20029;-57
2022/04/02 06:48:58;;;;;;;4.40;2.40;;;;;;;-148.33;100.00;56587.81;5050655;28;20021;-60
2022/04/02 06:51:23;;;;;;;6.93;2.50;;;;;;;-148.33;100.00;56587.81;5050338;28;20029;-60
2022/04/02 06:53:48;;;;;;;3.57;2.27;;;;;;;-148.33;100.00;56587.81;5050817;28;20025;-60
2022/04/02 06:56:14;;;;;;;3.07;2.30;;;;;;;-148.33;100.00;56587.81;5051612;28;20032;-60
2022/04/02 06:58:39;;;;;;;3.33;1.90;;;;;;;-148.33;100.00;56587.81;5054307;28;20394;-59
2022/04/02 07:01:05;;;;;;;5.07;2.30;;;;;;;-148.33;100.00;56587.81;5047939;28;20495;-59
2022/04/02 07:03:31;;;;;;;3.13;2.10;;;;;;;-148.33;100.00;56587.81;5054281;28;20029;-54
2022/04/02 07:05:57;;;;;;;2.43;2.03;;;;;;;-148.33;100.00;56587.81;5049409;28;20025;-59
2022/04/02 07:08:22;;;;;;;3.60;1.80;;;;;;;-148.33;100.00;56587.81;5050076;28;20033;-60
2022/04/02 07:10:47;;;;;;;3.13;2.47;;;;;;;-148.33;100.00;56587.81;5056033;28;20452;-61
2022/04/02 07:13:12;;;;;;;3.97;2.03;;;;;;;-148.33;100.00;56587.81;5049412;28;20125;-61
2022/04/02 07:15:41;;;;;;;5.67;2.40;;;;;;;-148.33;100.00;56587.81;5053415;28;20024;-57
2022/04/02 07:18:08;;;;;;;2.97;2.40;;;;;;;-148.33;100.00;56587.81;5059553;28;20029;-61
2022/04/02 07:20:38;;;;;;;3.90;2.07;;;;;;;-148.33;100.00;56587.81;5056999;28;20021;-61
2022/04/02 07:23:07;;;;;;;4.67;2.70;;;;;;;-148.33;100.00;56587.81;5056401;28;20025;-61
2022/04/02 07:25:36;;;;;;;3.70;2.37;;;;;;;-148.33;100.00;56587.81;5059997;28;20318;-60
2022/04/02 07:28:03;;;;;;;4.67;2.70;;;;;;;-148.33;100.00;56587.81;5068065;28;20465;-58
2022/04/02 07:30:31;;;;;;;2.70;2.30;;;;;;;-148.33;100.00;56587.81;5056906;28;20032;-61
2022/04/02 07:32:56;;;;;;;2.50;1.90;;;;;;;-148.33;100.00;56587.81;5059083;28;20099;-53
2022/04/02 07:35:21;;;;;;;7.17;2.63;;;;;;;-148.33;100.00;56587.81;5058397;28;20116;-61
2022/04/02 07:38:02;;;;;;;3.13;2.07;;;;;;;-148.33;100.00;56587.81;5056627;28;20036;-61
2022/04/02 07:40:34;;;;;;;4.20;2.45;;;;;;;-148.33;100.00;56587.81;5056936;28;20044;-60
2022/04/02 07:43:20;;;;;;;5.87;2.70;;;;;;;-148.33;100.00;56587.81;5059000;28;20405;-61
2022/04/02 07:45:51;;;;;;;2.97;2.40;;;;;;;-148.33;100.00;56587.81;5055731;28;20027;-61
2022/04/02 07:48:17;;;;;;;3.60;2.35;;;;;;;-148.33;100.00;56587.81;5059721;28;20055;-60
2022/04/02 07:50:45;;;;;;;4.07;2.27;;;;;;;-148.33;100.00;56587.81;5056326;28;20025;-58
2022/04/02 07:53:22;;;;;;;4.00;2.57;;;;;;;-148.33;100.00;56587.81;5056122;28;20033;-54
2022/04/02 07:55:56;;;;;;;3.77;2.00;;;;;;;-148.33;100.00;56587.81;5053820;28;20095;-61
2022/04/02 07:58:28;;;;;;;3.53;2.50;;;;;;;-148.33;100.00;56587.81;5059193;28;20024;-60
2022/04/02 08:00:56;;;;;;;5.30;2.23;;;;;;;-148.33;100.00;56587.81;5052347;28;20061;-61
2022/04/02 08:03:23;;;;;;;3.23;2.30;;;;;;;-148.33;100.00;56587.81;5048186;28;20045;-60
2022/04/02 08:05:48;;;;;;;3.37;2.50;;;;;;;-148.33;100.00;56587.81;5048646;28;20021;-59
2022/04/02 08:08:15;;;;;;;3.13;2.43;;;;;;;-148.33;100.00;56587.81;5058754;28;20161;-60
2022/04/02 08:10:45;;;;;;;3.53;2.40;;;;;;;-148.33;100.00;56587.81;5052749;28;20032;-60
2022/04/02 08:13:14;;;;;;;5.30;2.45;;;;;;;-148.33;100.00;56587.81;5061817;28;20109;-60
2022/04/02 08:15:40;;;;;;;5.00;2.53;;;;;;;-148.33;100.00;56587.81;5068571;28;20531;-60
2022/04/02 08:18:06;;;;;;;3.70;2.60;;;;;;;-148.33;100.00;56587.81;5067240;28;20062;-60
2022/04/02 08:20:32;;;;;;;5.97;2.63;;;;;;;-148.33;100.00;56587.81;5067968;28;20024;-59
2022/04/02 08:22:57;;;;;;;4.53;3.00;;;;;;;-148.33;100.00;56587.81;5055377;28;20037;-57
2022/04/02 08:25:23;;;;;;;3.77;2.47;;;;;;;-148.33;100.00;56587.81;5048193;28;20069;-60
2022/04/02 08:28:08;;;;;;;3.23;2.33;;;;;;;-148.33;100.00;56587.81;5052460;28;20029;-58
2022/04/02 08:30:38;;;;;;;4.32;2.70;;;;;;;-148.33;100.00;56587.81;5048337;28;20114;-60
2022/04/02 08:33:33;;;;;;;2.67;2.47;;;;;;;-148.33;100.00;56587.81;5047989;28;20029;-60
2022/04/02 08:36:10;;;;;;;5.97;2.70;;;;;;;-148.33;100.00;56587.81;5048661;28;20028;-61
2022/04/02 08:38:47;;;;;;;4.90;2.67;;;;;;;-148.33;100.00;56587.81;5050837;28;20120;-59
2022/04/02 08:41:15;;;;;;;5.33;2.57;;;;;;;-148.33;100.00;56587.81;5048282;28;20021;-61
2022/04/02 08:44:07;;;;;;;3.93;2.67;;;;;;;-148.33;100.00;56587.81;5053348;28;20036;-60
2022/04/02 08:46:57;;;;;;;4.63;3.07;;;;;;;-148.33;100.00;56587.81;5058003;28;20102;-59
2022/04/02 08:49:25;;;;;;;5.90;2.97;;;;;;;-148.33;100.00;56587.81;5018972;28;20496;-60
2022/04/02 08:52:18;;;;;;;5.50;3.10;;;;;;;-148.33;100.00;56587.81;5060559;28;20032;-60
2022/04/02 08:55:14;;;;;;;4.10;2.73;;;;;;;-148.33;100.00;56587.81;5053457;28;20119;-59
2022/04/02 09:01:23;;;;;;;5.60;3.17;;;;;;;-148.33;100.00;56587.81;5029250;28;20039;-59
2022/04/02 09:03:58;;;;;;;6.00;3.27;;;;;;;-148.33;100.00;56587.81;5066103;28;20038;-59
2022/04/02 09:06:41;;;;;;;5.03;3.30;;;;;;;-148.33;100.00;56587.81;5065585;28;20040;-59
2022/04/02 09:09:15;;;;;;;4.00;3.60;;;;;;;-148.33;100.00;56587.81;5066923;28;20073;-59
2022/04/02 09:12:02;;;;;;;4.03;3.37;;;;;;;-148.33;100.00;56587.81;5067293;28;20424;-59
2022/04/02 09:14:46;;;;;;;3.40;3.10;;;;;;;-148.33;100.00;56587.81;5066435;28;20489;-59
2022/04/02 09:17:36;;;;;;;4.23;3.30;;;;;;;-148.33;100.00;56587.81;5066958;28;20443;-58
2022/04/02 09:20:16;;;;;;;6.77;3.60;;;;;;;-148.33;100.00;56587.81;5017784;28;20047;-59
2022/04/02 09:23:19;;;;;;;4.57;3.47;;;;;;;-148.33;100.00;56587.81;5047781;28;20036;-60
2022/04/02 09:26:11;;;;;;;5.60;3.27;;;;;;;-148.33;100.00;56587.81;5047737;28;20040;-59
2022/04/02 09:29:12;;;;;;;4.60;3.53;;;;;;;-148.33;100.00;56587.81;5067484;28;20440;-59
2022/04/02 09:32:22;;;;;;;4.13;3.65;;;;;;;-148.33;100.00;56587.81;5049051;28;20036;-60
2022/04/02 09:35:11;;;;;;;4.30;3.63;;;;;;;-148.33;100.00;56587.81;5066711;28;20031;-60
2022/04/02 09:37:57;;;;;;;4.77;3.47;;;;;;;-148.33;100.00;56587.81;5066175;28;20464;-60
2022/04/02 09:40:36;;;;;;;3.83;3.27;;;;;;;-148.33;100.00;56587.81;5051471;28;20017;-59
2022/04/02 09:43:13;;;;;;;4.47;3.40;;;;;;;-148.33;100.00;56587.81;5051882;28;20025;-59
2022/04/02 09:45:52;;;;;;;6.63;3.50;;;;;;;-148.33;100.00;56587.81;5051868;28;20024;-59
2022/04/02 09:48:24;;;;;;;4.13;3.37;;;;;;;-148.33;100.00;56587.81;5051808;28;20021;-59
2022/04/02 09:50:55;;;;;;;5.77;3.40;;;;;;;-148.33;100.00;56587.81;5051704;28;20476;-58
2022/04/02 09:53:26;;;;;;;5.20;3.27;;;;;;;-148.33;100.00;56587.81;5051829;28;20020;-58
2022/04/02 09:56:26;;;;;;;5.33;3.27;;;;;;;-148.33;100.00;56587.81;5062249;28;20027;-59
2022/04/02 09:59:11;;;;;;;4.63;2.87;;;;;;;-148.33;100.00;56587.81;5054899;28;20036;-59
2022/04/02 10:01:47;;;;;;;3.50;3.00;;;;;;;-148.33;100.00;56587.81;5053819;28;20064;-56
2022/04/02 10:04:32;;;;;;;4.83;3.00;;;;;;;-148.33;100.00;56587.81;5055491;28;20167;-57
2022/04/02 10:06:58;;;;;;;6.17;3.37;;;;;;;-148.33;100.00;56587.81;5052695;28;20025;-57
2022/04/02 10:09:32;;;;;;;5.03;3.23;;;;;;;-148.33;100.00;56587.81;5050915;28;20035;-57
2022/04/02 10:11:59;;;;;;;3.73;3.00;;;;;;;-148.33;100.00;56587.81;5060282;28;20414;-59
2022/04/02 10:14:27;;;;;;;6.33;3.57;;;;;;;-148.33;100.00;56587.81;5057721;28;20029;-59
2022/04/02 10:17:04;;;;;;;3.50;3.10;;;;;;;-148.33;100.00;56587.81;5050551;28;20033;-57
2022/04/02 10:19:35;;;;;;;5.10;2.87;;;;;;;-148.33;100.00;56587.81;5051259;28;20496;-57
2022/04/02 10:22:08;;;;;;;5.05;3.40;;;;;;;-148.33;100.00;56587.81;5052763;28;20102;-58
2022/04/02 10:24:36;;;;;;;6.03;3.10;;;;;;;-148.33;100.00;56587.81;5053567;28;20553;-59
2022/04/02 10:27:03;;;;;;;6.07;3.63;;;;;;;-148.33;100.00;56587.81;5062342;28;20073;-59
2022/04/02 10:30:01;;;;;;;3.40;2.83;;;;;;;-148.33;100.00;56587.81;5068355;28;20047;-59
2022/04/02 10:32:51;;;;;;;3.60;3.03;;;;;;;-148.33;100.00;56587.81;5051885;28;20029;-59
2022/04/02 10:35:17;;;;;;;3.78;2.47;;;;;;;-148.33;100.00;56587.81;5050358;28;20074;-59
2022/04/02 10:38:03;;;;;;;5.28;2.80;;;;;;;-148.33;100.00;56587.81;5049958;28;20355;-59
2022/04/02 10:40:30;;;;;;;4.57;2.63;;;;;;;-148.33;100.00;56587.81;5050269;28;20029;-59
2022/04/02 10:43:04;;;;;;;4.88;3.03;;;;;;;-148.33;100.00;56587.81;5050368;28;20028;-60
2022/04/02 10:45:34;;;;;;;4.93;3.33;;;;;;;-148.33;100.00;56587.81;5050297;28;20090;-58
2022/04/02 10:48:09;;;;;;;5.43;2.90;;;;;;;-148.33;100.00;56587.81;5050416;28;20029;-58
2022/04/02 10:50:35;;;;;;;10.85;3.75;;;;;;;-148.33;100.00;56587.81;5049587;28;20029;-60
2022/04/02 10:53:02;;;;;;;9.23;4.55;;;;;;;-148.33;100.00;56587.81;5049978;28;20068;-60
2022/04/02 10:55:28;;;;;;;9.07;4.10;;;;;;;-148.33;100.00;56587.81;5050529;28;20025;-60
2022/04/02 10:57:56;;;;;;;6.43;3.38;;;;;;;-148.33;100.00;56587.81;5049833;28;20021;-60
2022/04/02 11:00:28;;;;;;;11.43;4.38;;;;;;;-148.33;100.00;56587.81;5050243;28;20426;-60
2022/04/02 11:03:05;;;;;;;14.25;5.57;;;;;;;-148.33;100.00;56587.81;5049965;28;20042;-61
2022/04/02 11:05:35;;;;;;;5.10;3.57;;;;;;;-148.33;100.00;56587.81;5051865;28;20036;-60
2022/04/02 11:08:11;;;;;;;5.15;3.13;;;;;;;-148.33;100.00;56587.81;5069135;28;20046;-58
2022/04/02 11:10:37;;;;;;;5.72;2.67;;;;;;;-148.33;100.00;56587.81;5053868;28;20418;-60
2022/04/02 11:13:08;;;;;;;5.45;4.68;;;;;;;-148.33;100.00;56587.81;5057703;28;20098;-57
2022/04/02 11:15:40;;;;;;;5.85;3.70;;;;;;;-148.33;100.00;56587.81;5052776;28;20036;-60
2022/04/02 11:18:16;;;;;;;8.60;4.32;;;;;;;-148.33;100.00;56587.81;5050341;28;20469;-60
2022/04/02 11:20:42;;;;;;;6.30;3.30;;;;;;;-148.33;100.00;56587.81;5054028;28;20440;-59
2022/04/02 11:23:45;;;;;;;3.73;2.73;;;;;;;-148.33;100.00;56587.81;5053499;28;20025;-59
2022/04/02 11:26:14;;;;;;;4.07;2.67;;;;;;;-148.33;100.00;56587.81;5051521;28;20021;-59
2022/04/02 11:28:47;;;;;;;4.70;2.80;;;;;;;-148.33;100.00;56587.81;5049868;28;20037;-58